createdAt,value
2022-09-21T00:01:17.548Z,15.49
2022-09-21T00:03:45.463Z,15.05
2022-09-21T00:06:14.543Z,14.91
2022-09-21T00:08:41.843Z,15.03
2022-09-21T00:11:16.386Z,15.26
2022-09-21T00:13:46.828Z,15.19
2022-09-21T00:16:16.061Z,15.38
2022-09-21T00:18:43.868Z,15.55
2022-09-21T00:21:13.811Z,15.44
2022-09-21T00:23:40.870Z,15.43
2022-09-21T00:26:19.147Z,15.51
2022-09-21T00:28:46.646Z,15.24
2022-09-21T00:31:17.051Z,15.21
2022-09-21T00:33:44.486Z,15.22
2022-09-21T00:36:17.274Z,15.09
2022-09-21T00:38:46.193Z,14.81
2022-09-21T00:41:13.548Z,14.65
2022-09-21T00:43:44.952Z,14.68
2022-09-21T00:46:30.241Z,14.42
2022-09-21T00:48:58.215Z,14.56
2022-09-21T00:51:26.125Z,14.75
2022-09-21T00:53:59.832Z,14.89
2022-09-21T00:56:27.062Z,14.90
2022-09-21T00:58:55.084Z,15.05
2022-09-21T01:01:22.260Z,15.09
2022-09-21T01:03:51.256Z,15.13
2022-09-21T01:06:19.942Z,15.04
2022-09-21T01:08:52.641Z,14.97
2022-09-21T01:11:28.476Z,14.93
2022-09-21T01:14:21.738Z,14.90
2022-09-21T01:16:57.081Z,14.98
2022-09-21T01:19:27.959Z,15.09
2022-09-21T01:22:15.079Z,15.06
2022-09-21T01:24:51.206Z,14.88
2022-09-21T01:27:21.020Z,14.92
2022-09-21T01:30:02.299Z,14.85
2022-09-21T01:32:30.487Z,14.87
2022-09-21T01:35:06.238Z,14.85
2022-09-21T01:37:40.185Z,14.88
2022-09-21T01:40:14.021Z,14.88
2022-09-21T01:42:41.673Z,14.91
2022-09-21T01:45:09.497Z,14.92
2022-09-21T01:47:37.980Z,15.01
2022-09-21T01:50:06.839Z,14.89
2022-09-21T01:52:42.835Z,14.97
2022-09-21T01:55:15.613Z,14.97
2022-09-21T01:57:55.217Z,15.05
2022-09-21T02:00:22.665Z,15.02
2022-09-21T02:03:04.971Z,14.85
2022-09-21T02:05:31.935Z,14.80
2022-09-21T02:07:59.116Z,14.92
2022-09-21T02:10:35.345Z,14.91
2022-09-21T02:13:05.614Z,14.92
2022-09-21T02:15:37.529Z,14.87
2022-09-21T02:18:24.216Z,14.70
2022-09-21T02:20:57.245Z,14.79
2022-09-21T02:23:38.103Z,14.82
2022-09-21T02:26:10.062Z,14.81
2022-09-21T02:28:39.529Z,14.75
2022-09-21T02:31:33.710Z,14.70
2022-09-21T02:34:25.136Z,14.60
2022-09-21T02:37:03.761Z,14.58
2022-09-21T02:39:43.365Z,14.58
2022-09-21T02:42:20.532Z,14.55
2022-09-21T02:44:52.403Z,14.49
2022-09-21T02:47:23.825Z,14.49
2022-09-21T02:49:54.766Z,14.55
2022-09-21T02:52:23.044Z,14.66
2022-09-21T02:54:52.450Z,14.64
2022-09-21T02:57:21.032Z,14.56
2022-09-21T02:59:48.159Z,14.53
2022-09-21T03:02:15.100Z,14.55
2022-09-21T03:04:43.609Z,14.35
2022-09-21T03:07:10.763Z,14.32
2022-09-21T03:09:38.255Z,14.20
2022-09-21T03:12:05.443Z,14.05
2022-09-21T03:14:33.147Z,13.90
2022-09-21T03:17:01.501Z,13.96
2022-09-21T03:19:29.286Z,14.03
2022-09-21T03:21:56.018Z,14.10
2022-09-21T03:24:41.450Z,14.11
2022-09-21T03:27:09.392Z,13.96
2022-09-21T03:29:36.073Z,13.70
2022-09-21T03:32:03.775Z,13.66
2022-09-21T03:34:31.447Z,13.64
2022-09-21T03:36:58.069Z,13.37
2022-09-21T03:39:24.764Z,13.24
2022-09-21T03:41:51.490Z,13.24
2022-09-21T03:44:18.249Z,13.17
2022-09-21T03:46:45.082Z,13.38
2022-09-21T03:49:11.811Z,13.31
2022-09-21T03:51:39.609Z,13.30
2022-09-21T03:54:06.484Z,13.19
2022-09-21T03:56:33.208Z,13.16
2022-09-21T03:58:59.865Z,13.17
2022-09-21T04:01:26.941Z,13.01
2022-09-21T04:03:53.892Z,12.91
2022-09-21T04:06:20.717Z,13.14
2022-09-21T04:08:47.462Z,13.15
2022-09-21T04:11:16.663Z,13.22
2022-09-21T04:13:43.733Z,13.26
2022-09-21T04:16:11.244Z,13.13
2022-09-21T04:18:38.740Z,13.41
2022-09-21T04:21:06.230Z,13.36
2022-09-21T04:23:33.129Z,13.31
2022-09-21T04:25:59.993Z,13.45
2022-09-21T04:28:26.703Z,13.49
2022-09-21T04:30:54.532Z,13.14
2022-09-21T04:33:23.904Z,13.17
2022-09-21T04:35:56.865Z,13.25
2022-09-21T04:38:23.815Z,13.51
2022-09-21T04:40:57.508Z,13.52
2022-09-21T04:43:24.568Z,13.25
2022-09-21T04:45:51.341Z,13.30
2022-09-21T04:48:18.254Z,13.34
2022-09-21T04:50:49.501Z,13.48
2022-09-21T04:53:16.938Z,13.44
2022-09-21T04:55:46.136Z,12.90
2022-09-21T04:58:12.946Z,12.89
2022-09-21T05:00:39.807Z,12.87
2022-09-21T05:03:06.563Z,12.59
2022-09-21T05:05:33.472Z,12.52
2022-09-21T05:08:00.198Z,12.34
2022-09-21T05:10:27.261Z,12.27
2022-09-21T05:12:54.025Z,12.40
2022-09-21T05:15:22.117Z,12.15
2022-09-21T05:17:48.785Z,11.93
2022-09-21T05:20:15.502Z,11.89
2022-09-21T05:22:42.257Z,12.03
2022-09-21T05:25:09.765Z,11.98
2022-09-21T05:27:37.248Z,12.16
2022-09-21T05:30:05.559Z,12.40
2022-09-21T05:33:03.911Z,12.72
2022-09-21T05:35:45.725Z,13.01
2022-09-21T05:38:17.624Z,12.87
2022-09-21T05:40:47.401Z,12.98
2022-09-21T05:43:14.556Z,13.08
2022-09-21T05:45:47.754Z,13.12
2022-09-21T05:48:19.936Z,13.33
2022-09-21T05:51:07.107Z,13.65
2022-09-21T05:53:49.858Z,13.79
2022-09-21T05:56:42.902Z,13.43
2022-09-21T05:59:30.376Z,13.46
2022-09-21T06:02:18.179Z,13.56
2022-09-21T06:04:45.293Z,13.29
2022-09-21T06:07:12.063Z,13.10
2022-09-21T06:09:42.498Z,13.19
2022-09-21T06:12:11.457Z,13.23
2022-09-21T06:14:38.411Z,13.42
2022-09-21T06:17:05.288Z,13.50
2022-09-21T06:19:32.361Z,13.48
2022-09-21T06:21:59.157Z,13.40
2022-09-21T06:24:25.981Z,13.57
2022-09-21T06:26:52.933Z,13.90
2022-09-21T06:29:23.513Z,14.12
2022-09-21T06:31:53.475Z,14.36
2022-09-21T06:34:20.214Z,14.13
2022-09-21T06:36:46.958Z,13.88
2022-09-21T06:39:13.871Z,14.08
2022-09-21T06:41:40.643Z,14.27
2022-09-21T06:44:10.351Z,14.28
2022-09-21T06:46:37.139Z,14.12
2022-09-21T06:49:03.924Z,13.44
2022-09-21T06:51:30.700Z,13.80
2022-09-21T06:53:58.458Z,14.03
2022-09-21T06:56:26.088Z,14.07
2022-09-21T06:58:53.127Z,14.24
2022-09-21T07:01:20.201Z,14.37
2022-09-21T07:03:50.856Z,14.32
2022-09-21T07:06:18.538Z,14.01
2022-09-21T07:11:32.570Z,14.76
2022-09-21T07:13:59.814Z,15.07
2022-09-21T07:16:27.071Z,15.28
2022-09-21T07:18:53.829Z,15.25
2022-09-21T07:21:20.595Z,15.88
2022-09-21T07:23:47.310Z,16.87
2022-09-21T07:26:14.169Z,18.86
2022-09-21T07:28:41.012Z,20.82
2022-09-21T07:31:14.851Z,20.40
2022-09-21T07:33:43.366Z,20.24
2022-09-21T07:36:11.433Z,20.49
2022-09-21T07:38:39.829Z,21.40
2022-09-21T07:41:12.107Z,21.99
2022-09-21T07:43:41.666Z,22.51
2022-09-21T07:46:11.613Z,23.11
2022-09-21T07:48:39.173Z,22.80
2022-09-21T07:51:08.191Z,23.64
2022-09-21T07:53:36.496Z,23.66
2022-09-21T07:56:11.701Z,23.33
2022-09-21T07:58:57.735Z,21.39
2022-09-21T08:01:26.707Z,20.65
2022-09-21T08:03:55.315Z,20.49
2022-09-21T08:06:23.423Z,20.72
2022-09-21T08:08:53.835Z,20.66
2022-09-21T08:11:23.861Z,19.93
2022-09-21T08:13:55.719Z,20.06
2022-09-21T08:16:22.624Z,20.25
2022-09-21T08:18:50.338Z,20.25
2022-09-21T08:21:17.363Z,20.26
2022-09-21T08:23:44.152Z,20.22
2022-09-21T08:26:17.471Z,20.37
2022-09-21T08:28:47.432Z,20.07
2022-09-21T08:31:14.207Z,20.01
2022-09-21T08:33:40.948Z,19.98
2022-09-21T08:36:09.412Z,20.15
2022-09-21T08:38:37.530Z,19.68
2022-09-21T08:41:15.504Z,18.96
2022-09-21T08:43:44.535Z,19.39
2022-09-21T08:46:14.247Z,19.35
2022-09-21T08:48:56.799Z,19.32
2022-09-21T08:51:27.038Z,18.43
2022-09-21T08:53:57.415Z,18.71
2022-09-21T08:56:37.037Z,19.22
2022-09-21T08:59:15.427Z,19.57
2022-09-21T09:01:59.576Z,19.58
2022-09-21T09:05:00.984Z,19.12
2022-09-21T09:07:39.883Z,19.84
2022-09-21T09:10:33.814Z,19.63
2022-09-21T09:13:18.736Z,19.24
2022-09-21T09:15:51.185Z,18.82
2022-09-21T09:18:40.199Z,19.37
2022-09-21T09:21:32.488Z,19.42
2022-09-21T09:24:19.906Z,19.32
2022-09-21T09:26:51.643Z,19.08
2022-09-21T09:29:21.349Z,19.13
2022-09-21T09:31:48.696Z,19.57
2022-09-21T09:34:36.848Z,19.10
2022-09-21T09:37:12.293Z,19.60
2022-09-21T09:39:40.026Z,19.74
2022-09-21T09:42:33.805Z,19.80
2022-09-21T09:45:29.474Z,19.92
2022-09-21T09:48:02.680Z,19.89
2022-09-21T09:50:34.496Z,19.08
2022-09-21T09:53:05.107Z,19.63
2022-09-21T09:55:43.688Z,19.69
2022-09-21T09:58:18.113Z,19.19
2022-09-21T10:00:46.384Z,19.60
2022-09-21T10:03:19.441Z,19.74
2022-09-21T10:05:46.300Z,19.56
2022-09-21T10:08:47.350Z,19.76
2022-09-21T10:11:15.934Z,18.93
2022-09-21T10:13:47.417Z,18.89
2022-09-21T10:16:24.143Z,18.92
2022-09-21T10:18:56.209Z,19.05
2022-09-21T10:21:35.335Z,19.41
2022-09-21T10:24:07.931Z,18.56
2022-09-21T10:26:44.979Z,19.85
2022-09-21T10:29:17.834Z,19.69
2022-09-21T10:31:59.640Z,19.79
2022-09-21T10:34:31.024Z,19.48
2022-09-21T10:37:00.176Z,19.04
2022-09-21T10:39:31.832Z,19.06
2022-09-21T10:42:05.616Z,19.00
2022-09-21T10:44:42.154Z,19.32
2022-09-21T10:47:17.959Z,19.87
2022-09-21T10:49:48.256Z,19.70
2022-09-21T10:52:15.175Z,19.47
2022-09-21T10:54:42.822Z,19.34
2022-09-21T10:57:14.609Z,19.34
2022-09-21T10:59:41.453Z,19.58
2022-09-21T11:02:33.736Z,19.70
2022-09-21T11:05:12.095Z,19.64
2022-09-21T11:07:48.173Z,19.74
2022-09-21T11:10:29.812Z,19.30
2022-09-21T11:13:22.720Z,19.21
2022-09-21T11:16:23.140Z,19.09
2022-09-21T11:19:10.403Z,19.70
2022-09-21T11:22:09.553Z,19.27
2022-09-21T11:24:49.194Z,19.51
2022-09-21T11:27:19.098Z,19.83
2022-09-21T11:30:07.257Z,19.49
2022-09-21T11:32:40.445Z,19.75
2022-09-21T11:35:44.357Z,19.60
2022-09-21T11:38:46.227Z,19.55
2022-09-21T11:41:37.755Z,19.43
2022-09-21T11:44:49.354Z,19.87
2022-09-21T11:47:53.726Z,19.34
2022-09-21T11:50:43.227Z,19.46
2022-09-21T11:53:20.184Z,19.77
2022-09-21T11:56:27.100Z,19.96
2022-09-21T11:59:16.412Z,19.71
2022-09-21T12:01:50.483Z,19.50
2022-09-21T12:04:27.566Z,19.55
2022-09-21T12:07:03.573Z,19.71
2022-09-21T12:09:58.015Z,19.97
2022-09-21T12:12:51.697Z,19.73
2022-09-21T12:16:20.248Z,19.68
2022-09-21T12:18:49.073Z,19.97
2022-09-21T12:21:21.645Z,19.89
2022-09-21T12:23:57.168Z,20.37
2022-09-21T12:26:37.347Z,20.00
2022-09-21T12:29:12.050Z,19.83
2022-09-21T12:31:48.118Z,19.74
2022-09-21T12:34:19.285Z,20.06
2022-09-21T12:36:59.022Z,19.80
2022-09-21T12:39:29.259Z,19.91
2022-09-21T12:42:10.405Z,20.47
2022-09-21T12:45:04.211Z,20.45
2022-09-21T12:47:54.121Z,20.27
2022-09-21T12:50:26.870Z,20.56
2022-09-21T12:52:55.044Z,20.26
2022-09-21T12:55:35.402Z,20.44
2022-09-21T12:58:17.421Z,19.91
2022-09-21T13:01:14.063Z,20.26
2022-09-21T13:03:55.271Z,20.29
2022-09-21T13:07:03.750Z,20.04
2022-09-21T13:09:31.234Z,20.30
2022-09-21T13:12:01.637Z,20.06
2022-09-21T13:14:33.171Z,20.28
2022-09-21T13:17:02.859Z,20.61
2022-09-21T13:19:32.237Z,20.49
2022-09-21T13:22:13.759Z,20.14
2022-09-21T13:24:42.329Z,20.78
2022-09-21T13:27:09.365Z,20.24
2022-09-21T13:29:39.985Z,20.08
2022-09-21T13:32:13.864Z,20.19
2022-09-21T13:34:42.681Z,20.31
2022-09-21T13:37:13.972Z,20.74
2022-09-21T13:39:44.567Z,20.96
2022-09-21T13:42:29.524Z,20.81
2022-09-21T13:44:58.106Z,20.77
2022-09-21T13:47:34.662Z,20.56
2022-09-21T13:50:04.574Z,20.62
2022-09-21T13:52:36.168Z,20.78
2022-09-21T13:55:18.865Z,20.98
2022-09-21T13:57:48.852Z,20.88
2022-09-21T14:00:19.955Z,20.50
2022-09-21T14:02:49.496Z,20.47
2022-09-21T14:05:36.157Z,20.70
2022-09-21T14:08:07.009Z,20.16
2022-09-21T14:10:37.466Z,20.48
2022-09-21T14:13:22.387Z,20.41
2022-09-21T14:15:49.592Z,20.35
2022-09-21T14:18:19.253Z,20.10
2022-09-21T14:21:18.400Z,20.09
2022-09-21T14:24:07.721Z,20.36
2022-09-21T14:26:35.948Z,20.45
2022-09-21T14:29:16.202Z,20.61
2022-09-21T14:31:43.251Z,20.71
2022-09-21T14:34:21.836Z,20.12
2022-09-21T14:36:51.680Z,20.46
2022-09-21T14:39:30.136Z,20.39
2022-09-21T14:41:59.452Z,19.89
2022-09-21T14:44:30.237Z,20.36
2022-09-21T14:47:00.145Z,20.53
2022-09-21T14:50:07.555Z,20.65
2022-09-21T14:52:46.737Z,20.42
2022-09-21T14:55:27.892Z,20.34
2022-09-21T14:58:27.775Z,20.62
2022-09-21T15:00:55.843Z,20.69
2022-09-21T15:03:28.794Z,20.55
2022-09-21T15:06:26.925Z,20.64
2022-09-21T15:09:41.793Z,20.57
2022-09-21T15:12:23.728Z,20.40
2022-09-21T15:15:00.259Z,20.01
2022-09-21T15:17:29.947Z,20.06
2022-09-21T15:20:03.554Z,20.38
2022-09-21T15:22:33.576Z,20.35
2022-09-21T15:25:04.110Z,20.50
2022-09-21T15:27:33.372Z,20.17
2022-09-21T15:30:03.077Z,20.27
2022-09-21T15:32:40.184Z,20.35
2022-09-21T15:35:19.947Z,20.10
2022-09-21T15:37:47.541Z,20.49
2022-09-21T15:40:17.556Z,20.28
2022-09-21T15:43:04.598Z,20.64
2022-09-21T15:45:46.949Z,20.46
2022-09-21T15:48:14.266Z,20.62
2022-09-21T15:50:43.126Z,20.57
2022-09-21T15:53:26.814Z,20.40
2022-09-21T15:55:54.097Z,20.71
2022-09-21T15:58:40.506Z,20.76
2022-09-21T16:01:12.699Z,20.75
2022-09-21T16:03:40.581Z,20.73
2022-09-21T16:06:37.983Z,20.63
2022-09-21T16:09:26.484Z,20.42
2022-09-21T16:11:54.265Z,20.65
2022-09-21T16:14:40.834Z,20.75
2022-09-21T16:17:12.126Z,20.77
2022-09-21T16:20:01.803Z,20.73
2022-09-21T16:22:31.444Z,20.55
2022-09-21T16:25:00.648Z,20.59
2022-09-21T16:27:29.999Z,20.68
2022-09-21T16:29:57.828Z,20.31
2022-09-21T16:32:28.876Z,20.03
2022-09-21T16:35:18.632Z,20.15
2022-09-21T16:37:45.371Z,20.36
2022-09-21T16:40:14.306Z,20.47
2022-09-21T16:42:41.513Z,20.45
2022-09-21T16:45:14.053Z,20.46
2022-09-21T16:47:40.771Z,20.10
2022-09-21T16:50:12.652Z,20.33
2022-09-21T16:52:39.711Z,20.08
2022-09-21T16:55:07.000Z,19.79
2022-09-21T16:57:34.006Z,19.98
2022-09-21T17:00:01.468Z,20.14
2022-09-21T17:02:28.168Z,19.66
2022-09-21T17:04:54.992Z,19.76
2022-09-21T17:07:21.744Z,19.90
2022-09-21T17:09:48.554Z,19.93
2022-09-21T17:12:17.851Z,19.82
2022-09-21T17:14:47.024Z,19.88
2022-09-21T17:17:19.703Z,19.91
2022-09-21T17:19:48.472Z,19.83
2022-09-21T17:22:18.527Z,19.89
2022-09-21T17:24:51.738Z,19.98
2022-09-21T17:27:26.838Z,19.97
2022-09-21T17:29:55.236Z,19.85
2022-09-21T17:32:24.383Z,19.91
2022-09-21T17:35:12.506Z,19.78
2022-09-21T17:37:39.248Z,19.66
2022-09-21T17:40:10.710Z,19.82
2022-09-21T17:42:44.272Z,19.68
2022-09-21T17:45:16.941Z,19.74
2022-09-21T17:47:44.025Z,19.69
2022-09-21T17:50:10.826Z,19.44
2022-09-21T17:52:56.627Z,19.47
2022-09-21T17:55:23.908Z,19.54
2022-09-21T17:58:18.708Z,19.39
2022-09-21T18:00:45.605Z,19.45
2022-09-21T18:03:25.092Z,19.50
2022-09-21T18:05:59.381Z,19.37
2022-09-21T18:08:31.301Z,19.19
2022-09-21T18:11:10.222Z,19.06
2022-09-21T18:13:47.173Z,19.11
2022-09-21T18:16:27.437Z,18.90
2022-09-21T18:19:03.663Z,19.00
2022-09-21T18:21:33.871Z,18.85
2022-09-21T18:24:23.930Z,18.90
2022-09-21T18:26:55.754Z,18.90
2022-09-21T18:29:42.957Z,18.90
2022-09-21T18:32:46.626Z,18.70
2022-09-21T18:35:31.597Z,18.67
2022-09-21T18:38:21.659Z,18.55
2022-09-21T18:41:33.200Z,18.67
2022-09-21T18:44:19.942Z,18.46
2022-09-21T18:47:09.751Z,18.56
2022-09-21T18:50:15.726Z,18.36
2022-09-21T18:53:12.973Z,18.26
2022-09-21T18:55:42.196Z,18.18
2022-09-21T18:58:16.663Z,18.25
2022-09-21T19:00:45.802Z,18.24
2022-09-21T19:03:19.035Z,18.16
2022-09-21T19:06:03.140Z,18.09
2022-09-21T19:08:49.868Z,18.12
2022-09-21T19:11:32.192Z,18.14
2022-09-21T19:14:23.201Z,18.02
2022-09-21T19:17:30.029Z,17.85
2022-09-21T19:20:03.313Z,17.90
2022-09-21T19:22:57.993Z,17.97
2022-09-21T19:25:49.984Z,17.89
2022-09-21T19:28:40.047Z,17.95
2022-09-21T19:31:20.153Z,17.94
2022-09-21T19:33:50.832Z,17.72
2022-09-21T19:36:21.169Z,17.76
2022-09-21T19:38:54.088Z,17.81
2022-09-21T19:41:39.366Z,17.80
2022-09-21T19:44:15.514Z,17.85
2022-09-21T19:46:49.349Z,17.78
2022-09-21T19:49:20.516Z,17.72
2022-09-21T19:51:52.204Z,17.63
2022-09-21T19:54:42.496Z,17.63
2022-09-21T19:57:33.259Z,17.68
2022-09-21T20:00:02.621Z,17.57
2022-09-21T20:02:42.277Z,17.38
2022-09-21T20:05:34.371Z,17.70
2022-09-21T20:08:05.851Z,17.59
2022-09-21T20:11:03.383Z,17.46
2022-09-21T20:13:46.317Z,17.46
2022-09-21T20:16:24.489Z,17.46
2022-09-21T20:19:19.512Z,17.40
2022-09-21T20:21:53.719Z,17.39
2022-09-21T20:24:27.491Z,17.42
2022-09-21T20:26:56.436Z,17.29
2022-09-21T20:29:25.044Z,17.21
2022-09-21T20:31:54.526Z,17.28
2022-09-21T20:34:23.626Z,17.21
2022-09-21T20:36:52.623Z,17.26
2022-09-21T20:39:23.615Z,17.26
2022-09-21T20:41:53.664Z,17.33
2022-09-21T20:44:25.748Z,17.00
2022-09-21T20:46:55.580Z,17.15
2022-09-21T20:49:25.296Z,17.21
2022-09-21T20:51:54.664Z,16.98
2022-09-21T20:54:23.775Z,16.83
2022-09-21T20:56:55.005Z,16.71
2022-09-21T20:59:24.333Z,16.69
2022-09-21T21:01:53.860Z,16.57
2022-09-21T21:04:22.865Z,16.57
2022-09-21T21:06:51.923Z,16.73
2022-09-21T21:09:20.909Z,16.83
2022-09-21T21:11:50.128Z,16.96
2022-09-21T21:14:19.174Z,16.75
2022-09-21T21:16:48.132Z,16.87
2022-09-21T21:19:19.023Z,16.96
2022-09-21T21:21:48.002Z,16.71
2022-09-21T21:24:35.071Z,16.82
2022-09-21T21:27:04.107Z,16.78
2022-09-21T21:29:33.118Z,16.71
2022-09-21T21:32:02.179Z,16.72
2022-09-21T21:34:32.333Z,16.70
2022-09-21T21:37:01.663Z,16.70
2022-09-21T21:39:31.207Z,16.76
2022-09-21T21:42:00.231Z,16.77
2022-09-21T21:44:31.181Z,16.73
2022-09-21T21:47:10.278Z,16.71
2022-09-21T21:49:49.279Z,16.57
2022-09-21T21:52:18.330Z,16.59
2022-09-21T21:54:47.627Z,16.65
2022-09-21T21:57:16.613Z,16.64
2022-09-21T21:59:45.575Z,16.76
2022-09-21T22:02:13.439Z,16.66
2022-09-21T22:04:43.933Z,16.30
2022-09-21T22:07:12.457Z,16.15
2022-09-21T22:09:42.426Z,15.90
2022-09-21T22:12:11.515Z,15.93
2022-09-21T22:14:40.786Z,15.85
2022-09-21T22:17:09.787Z,15.71
2022-09-21T22:19:39.130Z,15.67
2022-09-21T22:22:07.827Z,15.60
2022-09-21T22:24:35.845Z,15.81
2022-09-21T22:27:04.652Z,15.70
2022-09-21T22:29:32.913Z,15.87
2022-09-21T22:32:02.771Z,16.03
2022-09-21T22:34:31.669Z,16.04
2022-09-21T22:37:00.705Z,15.97
2022-09-21T22:39:29.718Z,15.70
2022-09-21T22:41:58.791Z,15.65
2022-09-21T22:44:27.185Z,15.80
2022-09-21T22:46:55.869Z,15.94
2022-09-21T22:49:24.868Z,15.72
2022-09-21T22:51:53.214Z,15.76
2022-09-21T22:54:21.878Z,15.91
2022-09-21T22:56:50.922Z,15.94
2022-09-21T22:59:19.918Z,15.73
2022-09-21T23:01:49.228Z,15.73
2022-09-21T23:04:19.044Z,15.73
2022-09-21T23:06:48.964Z,15.57
2022-09-21T23:09:20.532Z,15.75
2022-09-21T23:11:54.008Z,15.60
2022-09-21T23:14:24.032Z,15.88
2022-09-21T23:16:54.089Z,15.85
2022-09-21T23:19:22.654Z,15.95
2022-09-21T23:21:52.035Z,15.95
2022-09-21T23:24:22.400Z,15.77
2022-09-21T23:26:52.705Z,15.58
2022-09-21T23:29:21.197Z,15.63
2022-09-21T23:31:50.508Z,15.53
2022-09-21T23:34:21.457Z,15.50
2022-09-21T23:36:51.138Z,15.50
2022-09-21T23:39:19.511Z,15.55
2022-09-21T23:41:48.316Z,15.55
2022-09-21T23:44:17.199Z,15.59
2022-09-21T23:46:45.942Z,15.42
2022-09-21T23:49:14.433Z,15.46
2022-09-21T23:51:43.428Z,15.44
2022-09-21T23:54:12.329Z,15.54
2022-09-21T23:56:41.443Z,15.31
2022-09-21T23:59:10.512Z,15.49
